Terminal Aerodrome Forecast
Issued by NWS

Home | Current Version | Previous Version | Graphics & Text | Print | Product List | Glossary On
Versions: 1 2 3 4 5 6 7 8 9 10 11 12 13 14 15 16 17 18 19 20 21 22 23 24
000
FTUS42 KMHX 301428 AAA
TAFOAJ
TAF AMD
KOAJ 301428Z 3014/0112 33005KT P6SM VCSH BKN030 OVC040
     FM301800 33008KT P6SM SCT020 BKN040
     FM010700 VRB02KT 4SM BR OVC007
      AMD LTD TO CLD VIS AND WIND=

USA.gov is the U.S. government's official web portal to all federal, state and local government web resources and services.